createdAt,value
2018-04-14T00:00:28.454Z,18.90
2018-04-14T00:02:54.187Z,15.37
2018-04-14T00:05:19.730Z,14.03
2018-04-14T00:07:45.477Z,13.63
2018-04-14T00:10:11.017Z,15.87
2018-04-14T00:12:36.799Z,15.13
2018-04-14T00:15:02.344Z,13.93
2018-04-14T00:17:28.029Z,10.80
2018-04-14T00:19:53.573Z,12.27
2018-04-14T00:22:19.371Z,12.50
2018-04-14T00:24:45.015Z,10.17
2018-04-14T00:27:10.758Z,10.13
2018-04-14T00:29:36.300Z,10.97
2018-04-14T00:32:02.026Z,7.63
2018-04-14T00:34:27.602Z,9.27
2018-04-14T00:36:53.477Z,8.93
2018-04-14T00:39:19.066Z,7.90
2018-04-14T00:41:44.832Z,8.53
2018-04-14T00:44:10.381Z,8.10
2018-04-14T00:46:36.130Z,7.53
2018-04-14T00:49:01.637Z,9.67
2018-04-14T00:51:27.364Z,7.60
2018-04-14T00:53:52.909Z,7.23
2018-04-14T00:56:18.617Z,6.43
2018-04-14T00:58:44.283Z,7.67
2018-04-14T01:01:10.044Z,7.00
2018-04-14T01:03:35.594Z,5.80
2018-04-14T01:06:01.347Z,5.80
2018-04-14T01:08:26.921Z,6.00
2018-04-14T01:10:52.655Z,6.17
2018-04-14T01:13:18.197Z,4.53
2018-04-14T01:15:43.729Z,5.87
2018-04-14T01:18:09.524Z,4.63
2018-04-14T01:20:35.082Z,4.40
2018-04-14T01:23:00.787Z,3.93
2018-04-14T01:25:26.340Z,4.03
2018-04-14T01:27:52.225Z,4.50
2018-04-14T01:30:17.792Z,3.47
2018-04-14T01:32:43.652Z,3.57
2018-04-14T01:35:09.199Z,3.60
2018-04-14T01:37:34.930Z,3.20
2018-04-14T01:40:00.476Z,4.97
2018-04-14T01:42:26.305Z,5.20
2018-04-14T01:44:51.852Z,6.50
2018-04-14T01:47:17.549Z,4.77
2018-04-14T01:49:43.089Z,5.13
2018-04-14T01:52:08.641Z,3.60
2018-04-14T01:54:34.324Z,4.27
2018-04-14T01:56:59.958Z,3.17
2018-04-14T01:59:25.673Z,3.00
2018-04-14T02:01:51.215Z,3.17
2018-04-14T02:04:16.941Z,4.10
2018-04-14T02:06:42.472Z,5.70
2018-04-14T02:09:08.190Z,4.10
2018-04-14T02:11:33.753Z,4.60
2018-04-14T02:13:59.702Z,4.40
2018-04-14T02:16:25.254Z,4.00
2018-04-14T02:18:51.045Z,3.50
2018-04-14T02:21:16.594Z,3.40
2018-04-14T02:23:42.160Z,4.20
2018-04-14T02:26:07.934Z,3.53
2018-04-14T02:28:33.469Z,4.17
2018-04-14T02:30:59.332Z,3.37
2018-04-14T02:33:24.917Z,3.17
2018-04-14T02:35:50.634Z,3.43
2018-04-14T02:38:16.229Z,3.27
2018-04-14T02:40:41.915Z,3.20
2018-04-14T02:43:07.474Z,3.90
2018-04-14T02:45:33.252Z,3.20
2018-04-14T02:47:58.795Z,3.60
2018-04-14T02:50:24.581Z,3.53
2018-04-14T02:52:50.130Z,2.97
2018-04-14T02:55:15.935Z,2.70
2018-04-14T02:57:41.495Z,3.43
2018-04-14T03:00:07.246Z,3.30
2018-04-14T03:02:32.807Z,3.03
2018-04-14T03:04:58.649Z,3.17
2018-04-14T03:07:24.201Z,4.73
2018-04-14T03:09:49.980Z,3.07
2018-04-14T03:12:15.534Z,2.77
2018-04-14T03:14:41.410Z,2.83
2018-04-14T03:17:06.967Z,3.63
2018-04-14T03:19:32.667Z,3.20
2018-04-14T03:21:58.226Z,3.13
2018-04-14T03:24:24.031Z,4.63
2018-04-14T03:26:49.623Z,5.57
2018-04-14T03:29:15.373Z,4.00
2018-04-14T03:31:40.957Z,5.67
2018-04-14T03:34:06.829Z,4.50
2018-04-14T03:36:32.417Z,3.37
2018-04-14T03:38:58.127Z,3.30
2018-04-14T03:41:23.708Z,3.20
2018-04-14T03:43:50.778Z,2.83
2018-04-14T03:46:16.342Z,3.90
2018-04-14T03:48:42.130Z,4.73
2018-04-14T03:51:07.807Z,3.60
2018-04-14T03:53:34.034Z,3.23
2018-04-14T03:55:59.653Z,5.03
2018-04-14T03:58:25.692Z,3.67
2018-04-14T04:00:51.334Z,4.53
2018-04-14T04:03:17.307Z,3.70
2018-04-14T04:05:42.911Z,5.03
2018-04-14T04:08:09.432Z,3.27
2018-04-14T04:10:35.012Z,3.27
2018-04-14T04:13:00.577Z,3.93
2018-04-14T04:15:26.363Z,3.93
2018-04-14T04:17:51.907Z,3.23
2018-04-14T04:20:57.459Z,3.47
2018-04-14T04:24:01.222Z,4.50
2018-04-14T04:26:26.765Z,3.33
2018-04-14T04:28:52.531Z,3.37
2018-04-14T04:31:18.132Z,5.43
2018-04-14T04:33:44.329Z,2.70
2018-04-14T04:36:10.032Z,2.67
2018-04-14T04:41:07.427Z,2.77
2018-04-14T04:43:33.244Z,3.27
2018-04-14T04:45:58.804Z,4.20
2018-04-14T04:48:25.405Z,3.00
2018-04-14T04:50:50.979Z,2.83
2018-04-14T04:53:17.494Z,4.67
2018-04-14T04:55:43.034Z,3.20
2018-04-14T04:58:08.681Z,3.63
2018-04-14T05:00:35.101Z,4.60
2018-04-14T05:03:00.696Z,3.78
2018-04-14T05:05:26.547Z,4.17
2018-04-14T05:07:52.105Z,3.70
2018-04-14T05:10:18.246Z,2.73
2018-04-14T05:12:43.870Z,2.97
2018-04-14T05:15:10.020Z,3.40
2018-04-14T05:17:35.596Z,3.63
2018-04-14T05:20:01.298Z,5.70
2018-04-14T05:22:26.852Z,2.90
2018-04-14T05:24:52.753Z,5.37
2018-04-14T05:27:18.351Z,4.07
2018-04-14T05:29:44.517Z,3.10
2018-04-14T05:32:10.141Z,2.80
2018-04-14T05:34:35.889Z,5.13
2018-04-14T05:37:01.543Z,3.37
2018-04-14T05:39:27.071Z,4.30
2018-04-14T05:41:53.345Z,3.30
2018-04-14T05:44:18.928Z,4.20
2018-04-14T05:46:45.068Z,3.17
2018-04-14T05:49:10.671Z,5.67
2018-04-14T05:51:36.845Z,3.43
2018-04-14T05:54:02.427Z,3.50
2018-04-14T05:56:28.393Z,3.80
2018-04-14T05:58:53.970Z,3.23
2018-04-14T06:01:19.939Z,3.27
2018-04-14T06:03:45.527Z,3.57
2018-04-14T06:06:11.642Z,2.97
2018-04-14T06:08:37.192Z,4.20
2018-04-14T06:11:02.954Z,2.83
2018-04-14T06:13:28.484Z,4.20
2018-04-14T06:15:54.199Z,3.53
2018-04-14T06:18:19.762Z,3.53
2018-04-14T06:20:45.508Z,2.97
2018-04-14T06:23:11.111Z,2.97
2018-04-14T06:25:37.032Z,2.67
2018-04-14T06:28:02.593Z,3.77
2018-04-14T06:30:28.373Z,4.53
2018-04-14T06:32:53.921Z,4.40
2018-04-14T06:35:19.720Z,4.27
2018-04-14T06:37:45.279Z,2.87
2018-04-14T06:40:10.969Z,5.07
2018-04-14T06:42:36.514Z,3.20
2018-04-14T06:45:03.000Z,4.03
2018-04-14T06:47:28.545Z,6.43
2018-04-14T06:49:54.142Z,4.50
2018-04-14T06:52:20.065Z,4.20
2018-04-14T06:54:45.603Z,5.00
2018-04-14T06:57:11.432Z,4.53
2018-04-14T06:59:36.977Z,5.77
2018-04-14T07:02:02.736Z,4.43
2018-04-14T07:04:28.341Z,5.90
2018-04-14T07:06:54.199Z,5.53
2018-04-14T07:09:19.769Z,5.20
2018-04-14T07:11:45.474Z,5.23
2018-04-14T07:14:11.046Z,4.50
2018-04-14T07:16:36.849Z,5.33
2018-04-14T07:19:02.387Z,3.73
2018-04-14T07:21:28.151Z,4.60
2018-04-14T07:23:53.709Z,5.30
2018-04-14T07:26:19.507Z,4.87
2018-04-14T07:28:45.117Z,5.27
2018-04-14T07:31:10.964Z,3.83
2018-04-14T07:33:36.780Z,4.43
2018-04-14T07:36:02.366Z,3.97
2018-04-14T07:38:28.148Z,4.63
2018-04-14T07:40:53.702Z,3.70
2018-04-14T07:43:19.418Z,3.07
2018-04-14T07:45:44.976Z,4.07
2018-04-14T07:48:10.839Z,4.73
2018-04-14T07:50:36.388Z,3.80
2018-04-14T07:53:02.105Z,3.63
2018-04-14T07:55:27.646Z,5.40
2018-04-14T07:57:53.371Z,3.50
2018-04-14T08:00:18.947Z,3.50
2018-04-14T08:02:44.703Z,3.67
2018-04-14T08:05:10.260Z,5.67
2018-04-14T08:07:36.022Z,3.60
2018-04-14T08:10:01.669Z,6.43
2018-04-14T08:12:27.434Z,3.80
2018-04-14T08:14:53.783Z,5.80
2018-04-14T08:17:19.337Z,4.60
2018-04-14T08:19:45.109Z,4.43
2018-04-14T08:22:10.681Z,4.87
2018-04-14T08:24:36.527Z,5.53
2018-04-14T08:27:02.140Z,4.80
2018-04-14T08:29:27.925Z,4.50
2018-04-14T08:31:53.497Z,4.97
2018-04-14T08:34:19.368Z,4.40
2018-04-14T08:36:44.939Z,5.10
2018-04-14T08:39:10.632Z,5.03
2018-04-14T08:41:36.173Z,8.13
2018-04-14T08:44:01.987Z,4.87
2018-04-14T08:46:27.557Z,3.73
2018-04-14T08:48:53.243Z,5.03
2018-04-14T08:51:18.784Z,4.57
2018-04-14T08:53:44.500Z,3.27
2018-04-14T08:56:10.034Z,3.40
2018-04-14T08:58:35.575Z,3.00
2018-04-14T09:01:01.269Z,3.75
2018-04-14T09:03:26.841Z,4.43
2018-04-14T09:05:52.626Z,4.90
2018-04-14T09:08:18.280Z,3.90
2018-04-14T09:10:44.069Z,3.63
2018-04-14T09:13:09.669Z,2.73
2018-04-14T09:15:35.439Z,2.67
2018-04-14T09:18:02.059Z,2.83
2018-04-14T09:20:29.561Z,2.43
2018-04-14T09:23:00.147Z,2.57
2018-04-14T09:25:25.921Z,5.13
2018-04-14T09:27:52.707Z,4.10
2018-04-14T09:30:18.458Z,3.47
2018-04-14T09:32:44.021Z,2.97
2018-04-14T09:35:09.702Z,2.10
2018-04-14T09:37:35.265Z,1.80
2018-04-14T09:40:00.963Z,4.30
2018-04-14T09:42:26.514Z,2.90
2018-04-14T09:44:52.373Z,2.83
2018-04-14T09:47:17.930Z,1.77
2018-04-14T09:49:43.551Z,2.07
2018-04-14T09:52:09.241Z,1.40
2018-04-14T09:54:34.826Z,1.20
2018-04-14T09:57:00.515Z,1.87
2018-04-14T09:59:26.222Z,1.30
2018-04-14T10:01:51.964Z,1.30
2018-04-14T10:04:17.668Z,1.83
2018-04-14T10:10:12.152Z,1.77
2018-04-14T10:12:37.903Z,1.97
2018-04-14T10:15:03.450Z,1.97
2018-04-14T10:17:29.167Z,1.40
2018-04-14T10:19:54.712Z,2.33
2018-04-14T10:22:20.426Z,1.53
2018-04-14T10:24:46.065Z,2.30
2018-04-14T10:27:12.020Z,2.30
2018-04-14T10:29:37.619Z,2.83
2018-04-14T10:32:03.372Z,2.90
2018-04-14T10:34:28.883Z,1.47
2018-04-14T10:36:54.586Z,2.70
2018-04-14T10:39:20.195Z,2.17
2018-04-14T10:41:45.898Z,1.40
2018-04-14T10:44:11.445Z,2.00
2018-04-14T10:46:37.148Z,1.60
2018-04-14T10:49:02.687Z,1.43
2018-04-14T10:51:28.740Z,1.50
2018-04-14T10:53:54.272Z,1.63
2018-04-14T10:56:20.377Z,1.10
2018-04-14T10:58:45.994Z,2.47
2018-04-14T11:01:11.854Z,4.27
2018-04-14T11:03:37.387Z,5.63
2018-04-14T11:06:03.084Z,1.20
2018-04-14T11:08:28.724Z,1.23
2018-04-14T11:10:54.377Z,1.40
2018-04-14T11:13:19.927Z,1.30
2018-04-14T11:15:45.667Z,1.37
2018-04-14T11:18:11.237Z,0.87
2018-04-14T11:20:37.087Z,1.70
2018-04-14T11:23:02.636Z,1.30
2018-04-14T11:25:28.376Z,1.70
2018-04-14T11:27:54.169Z,2.67
2018-04-14T11:30:19.967Z,1.40
2018-04-14T11:32:45.542Z,2.23
2018-04-14T11:35:11.498Z,2.47
2018-04-14T11:37:37.127Z,1.20
2018-04-14T11:40:02.675Z,1.33
2018-04-14T11:42:28.378Z,3.03
2018-04-14T11:44:53.942Z,2.25
2018-04-14T11:47:19.708Z,1.83
2018-04-14T11:49:45.241Z,1.97
2018-04-14T11:52:10.929Z,1.40
2018-04-14T11:54:36.482Z,4.00
2018-04-14T11:57:02.177Z,1.30
2018-04-14T11:59:27.742Z,1.17
2018-04-14T12:01:53.478Z,1.50
2018-04-14T12:04:19.030Z,2.83
2018-04-14T12:06:44.732Z,1.97
2018-04-14T12:09:10.292Z,2.03
2018-04-14T12:11:36.091Z,1.63
2018-04-14T12:14:01.671Z,1.23
2018-04-14T12:16:27.451Z,1.50
2018-04-14T12:18:53.017Z,1.00
2018-04-14T12:21:18.568Z,1.13
2018-04-14T12:23:44.224Z,1.17
2018-04-14T12:26:10.060Z,2.77
2018-04-14T12:28:35.642Z,1.77
2018-04-14T12:31:01.208Z,1.77
2018-04-14T12:33:26.896Z,1.47
2018-04-14T12:35:52.471Z,1.10
2018-04-14T12:38:18.150Z,0.90
2018-04-14T12:40:43.910Z,0.83
2018-04-14T12:43:09.453Z,0.80
2018-04-14T12:45:35.095Z,0.97
2018-04-14T12:48:00.785Z,1.00
2018-04-14T12:50:26.415Z,1.37
2018-04-14T12:52:52.284Z,1.10
2018-04-14T12:55:17.850Z,0.80
2018-04-14T12:57:43.542Z,0.80
2018-04-14T13:00:09.088Z,1.05
2018-04-14T13:02:34.765Z,0.90
2018-04-14T13:05:00.296Z,1.50
2018-04-14T13:07:26.118Z,2.15
